Aktuální počasí v Česku a ve světě - METAR

Seznam meteostanic umístěných nejčasteji na letišti v ČR a ve světě

Vyhledat místa podle abecedy:
A B C D E F G H I J K L M N O P Q R S T U V W X Y Z

Filtrovat:

ID stanice:
a/nebo
Název místa (fulltext):
 
Místo (ID)Naposledy načteno 
Aalborg (EKYT) 03.03.2024 00:50 UTC Zobrazit METAR
EKYT 030050Z AUTO 09008KT 1600 -RA BR OVC002/// 06/06 Q1009
Aarhus (EKAH) 02.03.2024 01:50 UTC Zobrazit METAR
EKAH 020150Z AUTO 10006KT 1500 BR BKN003/// 05/05 Q1007
Abu Dhabi (OMAA) 03.03.2024 09:00 UTC Zobrazit METAR
OMAA 030900Z 11006KT 060V160 CAVOK 24/02 Q1016 NOSIG
Abuja (DNAA) 03.03.2024 09:00 UTC Zobrazit METAR
DNAA 030900Z 10004KT CAVOK 31/21 Q1015 NOSIG
Accra (DGAA) 03.03.2024 07:00 UTC Zobrazit METAR
DGAA 030700Z 16003KT 120V200 9999 FEW018 SCT024 27/24 Q1012 NOSIG
Addis Abeba (HAAB) 03.03.2024 07:00 UTC Zobrazit METAR
HAAB 030700Z 10006KT CAVOK 22/10 Q1028 NOSIG
Agana (PGUM) 03.03.2024 08:54 UTC Zobrazit METAR
PGUM 030854Z 09006KT 10SM FEW030 27/22 A2995 RMK AO2 SLP134 T02720217 53008
Ahe Island (NTHE) Zatím nenačteno  
Akureyri (BIAR) 03.03.2024 09:00 UTC Zobrazit METAR
BIAR 030900Z 17003KT CAVOK M14/M16 Q1016
Almaty (UAAA) Zatím nenačteno  
Amman (OJAM) 03.03.2024 08:00 UTC Zobrazit METAR
OJAM 030800Z 26011KT 4000 HZ BKN015 BKN025 12/08 Q1017 NOSIG
Amsterdam (EHAM) 03.03.2024 08:55 UTC Zobrazit METAR
EHAM 030855Z 14007KT 110V170 9999 FEW048 10/06 Q1000 NOSIG
Antananarivo (FMMI) 03.03.2024 09:00 UTC Zobrazit METAR
FMMI 030900Z 11009KT 080V140 9999 FEW020 22/14 Q1021 NOSIG
Antwerp (EBAW) 03.03.2024 08:50 UTC Zobrazit METAR
EBAW 030850Z 01003KT 320V100 9999 FEW045 08/07 Q1000 TEMPO 4500 BR
Apia (NSFA) 03.03.2024 09:00 UTC Zobrazit METAR
NSFA 030900Z 10003KT 9999 SCT023 27/26 Q1013
Aruba I (TNCA) 03.03.2024 09:00 UTC Zobrazit METAR
TNCA 030900Z 08013KT 9999 FEW018 26/22 Q1013 NOSIG
Ascension I. (FHAW) 02.03.2024 00:50 UTC Zobrazit METAR
FHAW 020050Z 13012KT 9999 FEW018 27/23 Q1012 NOSIG RMK BLU BLU
Ashgabat (UTAA) 03.03.2024 09:00 UTC Zobrazit METAR
UTAA 030900Z 10008KT 060V140 9999 NSC 09/M09 Q1021 R88/CLRD70 NOSIG
Asmara (HHAS) 03.02.2015 17:00 UTC Zobrazit METAR
HHAS 031700Z 27004KT CAVOK 15/06 Q1028 NOSIG
Astana (UACC) Zatím nenačteno  
Astrakhan (URWA) Zatím nenačteno  
Asuncion (SGAS) 03.03.2024 09:00 UTC Zobrazit METAR
SGAS 030900Z 05005KT CAVOK 29/23 Q1008
Athens (LGAV) 03.03.2024 08:50 UTC Zobrazit METAR
LGAV 030850Z VRB02KT 9999 FEW025 15/08 Q1015 NOSIG
Reklama

Krásné fotografie přírody - (nejen) tapety na pozadí do počítače

Článek
Fotogalerie jarních květin
13. dubna 2023 12:19
Článek
Fotografie slunečné zimní krajiny
7. prosince 2022 17:13
Článek
Obrázky na téma slunečno
25. srpna 2022 05:03
Článek
Obrázky květin
5. června 2022 12:12

Vyhledat
Přidejte si Počasí Slunečno na svůj Facebook
Facebook Počasí Slunečno.cz
Aplikace pro Windows 10/11 nebo chytré mobilní telefony
Stáhněte si aplikaci Slunečno.cz na Microsoft Store Stáhněte si aplikaci Slunečno.cz na Google Play